• Join FlightAware (Why Join?)
  • Login
  • US Flag 
02:52AM EST


 

Airport Tracker/Info


-or-


 

Live Flight TrackerFlight Track Log ✈ N80788 ✈ 10-Aug-2014 ✈ 26N - KMDT

Flight Track Log - Related Links

Times and Time Zones

All times are in EDT time to prevent confusion due to time zone crossing. See the N80788 flight status page for this flight to view local times or setup timezone preferences in your user account.

Time Position Orientation Groundspeed Altitude Reporting Facility
EDT Latitude Longitude Course Direction KTS MPH feet Rate Location/Type
07:19PM 39.4252 -74.5749 14° North  Level FlightAware Approximate
07:20PM 39.4512 -74.5724 285° West  Level FlightAware Approximate
07:20PM 39.4167 -74.8500 285° West 118 136 4,000  Level Philadelphia TRACON
07:20PM 39.4167 -74.8667 270° West 119 137 4,000  Level Philadelphia TRACON
07:21PM 39.4591 -74.6101 285° West  Level FlightAware Approximate
07:21PM 39.4333 -74.9000 303° West 120 138 4,000  Level Philadelphia TRACON
07:22PM 39.4670 -74.6479 285° West  Level FlightAware Approximate
07:22PM 39.4500 -74.9333 303° West 119 137 4,000  Level Philadelphia TRACON
07:23PM 39.4749 -74.6856 285° West  Level FlightAware Approximate
07:23PM 39.4667 -74.9667 303° West 116 133 4,000  Level Philadelphia TRACON
07:24PM 39.4828 -74.7234 285° West  Level FlightAware Approximate
07:24PM 39.4833 -75.0000 303° West 116 133 4,000  Level Philadelphia TRACON
07:25PM 39.4907 -74.7612 285° West  Level FlightAware Approximate
07:25PM 39.5000 -75.0500 293° West 115 132 4,000  Level Philadelphia TRACON
07:26PM 39.4986 -74.7990 285° West  Level FlightAware Approximate
07:26PM 39.5167 -75.0833 303° West 116 133 4,000  Level Philadelphia TRACON
07:27PM 39.5333 -75.1167 303° West 117 135 4,000  Level Philadelphia TRACON
07:28PM 39.5333 -75.1500 270° West 114 131 4,000  Level Philadelphia TRACON
07:29PM 39.5500 -75.2000 293° West 115 132 4,000  Level Philadelphia TRACON
07:30PM 39.5667 -75.2333 303° West 112 129 4,000  Level Philadelphia TRACON
07:31PM 39.5667 -75.2667 270° West 116 133 4,000  Level Philadelphia TRACON
07:32PM 39.5833 -75.3167 293° West 114 131 4,000  Level Philadelphia TRACON
07:34PM 39.6000 -75.3500 303° West 115 132 4,000  Level Philadelphia TRACON
07:35PM 39.6000 -75.4000 270° West 114 131 4,000  Level Philadelphia TRACON
07:35PM 39.6167 -75.4333 303° West 118 136 4,000  Level Philadelphia TRACON
07:36PM 39.6333 -75.4667 303° West 115 132 4,000  Level Philadelphia TRACON
07:37PM 39.6500 -75.5000 303° West 115 132 4,000  Level Philadelphia TRACON
07:38PM 39.6667 -75.5333 303° West 115 132 4,000  Level Philadelphia TRACON
07:40PM 39.6833 -75.5833 293° West 116 133 4,000  Level Philadelphia TRACON
07:40PM 39.7000 -75.6167 303° West 115 132 4,000  Level Philadelphia TRACON
07:41PM 39.7167 -75.6500 303° West 114 131 4,000  Level Philadelphia TRACON
07:43PM 39.7333 -75.6833 303° West 115 132 4,000  Level Philadelphia TRACON
07:44PM 39.7500 -75.7167 303° West 114 131 4,000  Level Philadelphia TRACON
07:45PM 39.7667 -75.7500 303° West 115 132 4,000  Level Philadelphia TRACON
07:46PM 39.7833 -75.7833 303° West 114 131 4,000  Level Philadelphia TRACON
07:46PM 39.8000 -75.8167 303° West 116 133 4,000  Level Philadelphia TRACON
07:48PM 39.8167 -75.8667 293° West 117 135 4,000  Level Philadelphia TRACON
07:48PM 39.8333 -75.9000 303° West 117 135 4,000  Level Philadelphia TRACON
07:49PM 39.8500 -75.9333 303° West 116 133 4,000  Level Philadelphia TRACON
07:51PM 39.8592 -75.9729 287° West  Level FlightAware Approximate
07:58PM 39.9367 -76.2324 300° West  Level FlightAware Approximate
07:59PM 39.9519 -76.2664 300° West  Level FlightAware Approximate
08:00PM 39.9671 -76.3005 300° West  Level FlightAware Approximate
08:01PM 39.9822 -76.3346 300° West  Level FlightAware Approximate
08:02PM 39.9973 -76.3687 300° West  Level FlightAware Approximate
08:03PM 40.0125 -76.4029 300° West  Level FlightAware Approximate
08:04PM 40.0276 -76.4370 300° West  Level FlightAware Approximate
08:05PM 40.0426 -76.4712 300° West  Level FlightAware Approximate
08:06PM 40.0576 -76.5055 300° West  Level FlightAware Approximate
08:07PM 40.0725 -76.5398 300° West  Level FlightAware Approximate
08:08PM 40.0874 -76.5741 300° West  Level FlightAware Approximate
08:09PM 40.1024 -76.6085 300° West  Level FlightAware Approximate
08:10PM 40.1173 -76.6428 300° West  Level FlightAware Approximate
08:11PM 40.1322 -76.6771 300° West  Level FlightAware Approximate
08:12PM 40.1471 -76.7115 300° West  Level FlightAware Approximate
08:13PM 40.1620 -76.7459 300° West  Level FlightAware Approximate
08:14PM 40.1768 -76.7803 300° West  Level FlightAware Approximate
08:15PM 40.1932 -76.7626 299° West  Level Estimated
08:16PM 40.1932 -76.7626 295° West  Level Estimated
08:17PM 40.1932 -76.7626 295° West  Level Estimated
08:18PM 40.1932 -76.7626 295° West  Level Estimated
08:19PM 40.1932 -76.7626 295° West  Level Estimated
08:20PM 40.1932 -76.7626 295° West  Level Estimated
08:21PM 40.1932 -76.7626 295° West  Level Estimated
08:22PM 40.1932 -76.7626 295° West  Level Estimated
08:23PM 40.1932 -76.7626 116° Southeast  Level Estimated
08:24PM 40.1932 -76.7626 294° West  Level Estimated